Time;durP1;ratioP1;P1;durP2;ratioP2;P2;SDS_P1;SDS_P2;PMS_P1;PMS_P2;Temp;Humidity;BMP_temperature;BMP_pressure;BME280_temperature;BME280_humidity;BME280_pressure;Samples;Min_cycle;Max_cycle;Signal;HPM_P1;HPM_P2
2021/03/03 00:01:17;;;;;;;;;;;5.50;99.90;;;;;;4951699;29;19961;-68
2021/03/03 00:03:45;;;;;;;;;;;5.50;99.90;;;;;;4952320;28;20556;-68
2021/03/03 00:06:10;;;;;;;;;;;5.40;99.90;;;;;;4950873;29;19911;-69
2021/03/03 00:08:38;;;;;;;;;;;5.40;99.90;;;;;;4944875;29;19914;-68
2021/03/03 00:11:04;;;;;;;;;;;5.40;99.90;;;;;;4951776;29;19929;-69
2021/03/03 00:13:29;;;;;;;;;;;5.40;99.90;;;;;;4948493;29;19911;-68
2021/03/03 00:15:57;;;;;;;;;;;5.40;99.90;;;;;;4952316;29;19953;-69
2021/03/03 00:18:22;;;;;;;;;;;5.40;99.90;;;;;;4951384;28;20279;-69
2021/03/03 00:20:48;;;;;;;;;;;5.40;99.90;;;;;;4950826;29;19910;-69
2021/03/03 00:23:13;;;;;;;;;;;5.40;99.90;;;;;;4951432;28;20467;-69
2021/03/03 00:25:39;;;;;;;;;;;5.40;99.90;;;;;;4950404;29;19973;-68
2021/03/03 00:28:05;;;;;;;;;;;5.40;99.90;;;;;;4951855;29;20348;-68
2021/03/03 00:30:30;;;;;;;;;;;5.40;99.90;;;;;;4950396;29;19926;-69
2021/03/03 00:32:58;;;;;;;;;;;5.40;99.90;;;;;;4950237;29;19961;-68
2021/03/03 00:35:26;;;;;;;;;;;5.30;99.90;;;;;;4949290;28;19911;-70
2021/03/03 00:37:53;;;;;;;;;;;5.30;99.90;;;;;;4951735;29;19910;-68
2021/03/03 00:40:19;;;;;;;;;;;5.30;99.90;;;;;;4951783;29;19910;-69
2021/03/03 00:42:47;;;;;;;;;;;5.30;99.90;;;;;;4951904;28;19917;-68
2021/03/03 00:45:15;;;;;;;;;;;5.30;99.90;;;;;;4951983;28;19910;-68
2021/03/03 00:47:41;;;;;;;;;;;5.30;99.90;;;;;;4950215;29;20407;-68
2021/03/03 00:50:09;;;;;;;;;;;5.20;99.90;;;;;;4951340;29;19926;-68
2021/03/03 00:52:34;;;;;;;;;;;5.20;99.90;;;;;;4950986;29;19921;-68
2021/03/03 00:55:00;;;;;;;;;;;5.20;99.90;;;;;;4951182;29;19910;-68
2021/03/03 00:57:25;;;;;;;;;;;5.20;99.90;;;;;;4950962;29;19931;-68
2021/03/03 00:59:53;;;;;;;;;;;5.20;99.90;;;;;;4950485;29;19973;-68
2021/03/03 01:02:19;;;;;;;;;;;5.20;99.90;;;;;;4950004;29;19949;-68
2021/03/03 01:04:44;;;;;;;;;;;5.10;99.90;;;;;;4950378;28;20360;-68
2021/03/03 01:07:10;;;;;;;;;;;5.10;99.90;;;;;;4950987;28;19914;-68
2021/03/03 01:09:36;;;;;;;;;;;5.10;99.90;;;;;;4949595;28;20541;-68
2021/03/03 01:12:01;;;;;;;;;;;5.10;99.90;;;;;;4956491;29;19929;-68
2021/03/03 01:14:27;;;;;;;;;;;5.10;99.90;;;;;;4957798;28;19977;-68
2021/03/03 01:16:53;;;;;;;;;;;5.10;99.90;;;;;;4957865;28;19925;-68
2021/03/03 01:19:19;;;;;;;;;;;5.10;99.90;;;;;;4950257;29;19914;-68
2021/03/03 01:21:45;;;;;;;;;;;5.10;99.90;;;;;;4945653;29;19973;-68
2021/03/03 01:24:11;;;;;;;;;;;5.10;99.90;;;;;;4946854;29;19918;-69
2021/03/03 01:26:39;;;;;;;;;;;5.10;99.90;;;;;;4957707;28;20362;-68
2021/03/03 01:29:04;;;;;;;;;;;5.10;99.90;;;;;;4957200;29;19918;-68
2021/03/03 01:31:32;;;;;;;;;;;5.10;99.90;;;;;;4957255;29;20367;-68
2021/03/03 01:33:58;;;;;;;;;;;5.00;99.90;;;;;;4957978;29;20405;-68
2021/03/03 01:36:23;;;;;;;;;;;5.10;99.90;;;;;;4956214;28;20021;-68
2021/03/03 01:38:49;;;;;;;;;;;5.00;99.90;;;;;;4940355;28;19915;-68
2021/03/03 01:41:14;;;;;;;;;;;5.00;99.90;;;;;;4932227;29;20465;-68
2021/03/03 01:43:42;;;;;;;;;;;5.00;99.90;;;;;;4945434;28;19918;-68
2021/03/03 01:46:10;;;;;;;;;;;5.00;99.90;;;;;;4944695;29;19925;-68
2021/03/03 01:48:35;;;;;;;;;;;5.00;99.90;;;;;;4944812;29;19919;-68
2021/03/03 01:51:01;;;;;;;;;;;4.90;99.90;;;;;;4946048;29;20259;-68
2021/03/03 01:53:27;;;;;;;;;;;4.90;99.90;;;;;;4944593;29;19930;-68
2021/03/03 01:55:56;;;;;;;;;;;5.00;99.90;;;;;;4949395;28;19986;-69
2021/03/03 01:58:21;;;;;;;;;;;4.90;99.90;;;;;;4956724;29;19926;-68
2021/03/03 02:00:47;;;;;;;;;;;4.90;99.90;;;;;;4951409;28;19914;-69
2021/03/03 02:03:13;;;;;;;;;;;4.90;99.90;;;;;;4957260;28;19965;-68
2021/03/03 02:05:41;;;;;;;;;;;4.90;99.90;;;;;;4951417;29;19919;-68
2021/03/03 02:08:25;;;;;;;;;;;4.90;99.90;;;;;;4944108;29;20048;-68
2021/03/03 02:10:54;;;;;;;;;;;4.90;99.90;;;;;;4943632;28;19930;-68
2021/03/03 02:13:26;;;;;;;;;;;4.90;99.90;;;;;;4939687;29;19922;-68
2021/03/03 02:15:54;;;;;;;;;;;4.90;99.90;;;;;;4945104;28;20016;-68
2021/03/03 02:18:20;;;;;;;;;;;4.80;99.90;;;;;;4943197;29;20357;-68
2021/03/03 02:21:04;;;;;;;;;;;4.80;99.90;;;;;;4944564;28;19925;-68
2021/03/03 02:23:33;;;;;;;;;;;4.80;99.90;;;;;;4947598;28;19972;-68
2021/03/03 02:25:59;;;;;;;;;;;4.80;99.90;;;;;;4953824;29;19977;-68
2021/03/03 02:28:24;;;;;;;;;;;4.80;99.90;;;;;;4939579;29;19926;-68
2021/03/03 02:30:50;;;;;;;;;;;4.80;99.90;;;;;;4941283;29;19922;-68
2021/03/03 02:33:16;;;;;;;;;;;4.80;99.90;;;;;;4941387;29;19925;-69
2021/03/03 02:35:43;;;;;;;;;;;4.80;99.90;;;;;;4936233;29;19925;-69
2021/03/03 02:38:09;;;;;;;;;;;4.80;99.90;;;;;;4936833;28;19915;-68
2021/03/03 02:40:34;;;;;;;;;;;4.80;99.90;;;;;;4936583;28;19914;-68
2021/03/03 02:43:02;;;;;;;;;;;4.70;99.90;;;;;;4941350;28;19918;-68
2021/03/03 02:45:28;;;;;;;;;;;4.70;99.90;;;;;;4939847;29;21768;-68
2021/03/03 02:47:56;;;;;;;;;;;4.60;99.90;;;;;;4941101;29;19918;-69
2021/03/03 02:50:21;;;;;;;;;;;4.60;99.90;;;;;;4949836;29;19919;-68
2021/03/03 02:52:47;;;;;;;;;;;4.60;99.90;;;;;;4953453;29;20257;-69
2021/03/03 02:55:15;;;;;;;;;;;4.60;99.90;;;;;;4952306;29;20371;-68
2021/03/03 02:57:41;;;;;;;;;;;4.60;99.90;;;;;;4950680;29;19918;-69
2021/03/03 03:00:07;;;;;;;;;;;4.50;99.90;;;;;;4949435;29;19929;-69
2021/03/03 03:02:32;;;;;;;;;;;4.40;99.90;;;;;;4941028;29;19914;-69
2021/03/03 03:04:58;;;;;;;;;;;4.40;99.90;;;;;;4952008;28;19918;-68
2021/03/03 03:07:23;;;;;;;;;;;4.40;99.90;;;;;;4939028;29;19934;-68
2021/03/03 03:09:49;;;;;;;;;;;4.40;99.90;;;;;;4938467;29;19928;-68
2021/03/03 03:12:15;;;;;;;;;;;4.30;99.90;;;;;;4935626;29;19915;-68
2021/03/03 03:14:41;;;;;;;;;;;4.40;99.90;;;;;;4937853;29;19922;-68
2021/03/03 03:17:07;;;;;;;;;;;4.30;99.90;;;;;;4931359;29;19914;-69
2021/03/03 03:19:36;;;;;;;;;;;4.30;99.90;;;;;;4953093;29;19921;-69
2021/03/03 03:22:02;;;;;;;;;;;4.30;99.90;;;;;;4951901;29;21708;-68
2021/03/03 03:24:29;;;;;;;;;;;4.30;99.90;;;;;;4943261;28;19929;-68
2021/03/03 03:26:55;;;;;;;;;;;4.20;99.90;;;;;;4939784;29;20492;-68
2021/03/03 03:29:23;;;;;;;;;;;4.10;99.90;;;;;;4936137;29;19930;-68
2021/03/03 03:31:49;;;;;;;;;;;4.10;99.90;;;;;;4936100;29;20009;-68
2021/03/03 03:34:17;;;;;;;;;;;4.10;99.90;;;;;;4939852;29;19988;-69
2021/03/03 03:36:42;;;;;;;;;;;4.10;99.90;;;;;;4936216;28;20259;-68
2021/03/03 03:39:08;;;;;;;;;;;4.10;99.90;;;;;;4935809;29;19930;-68
2021/03/03 03:41:34;;;;;;;;;;;4.10;99.90;;;;;;4941289;29;20063;-68
2021/03/03 03:43:59;;;;;;;;;;;4.00;99.90;;;;;;4934756;29;19918;-68
2021/03/03 03:46:25;;;;;;;;;;;4.00;99.90;;;;;;4927498;29;19997;-69
2021/03/03 03:48:53;;;;;;;;;;;4.00;99.90;;;;;;4936348;29;20049;-68
2021/03/03 03:51:19;;;;;;;;;;;4.00;99.90;;;;;;4940313;29;19961;-69
2021/03/03 03:53:44;;;;;;;;;;;3.90;99.90;;;;;;4939712;29;20013;-68
2021/03/03 03:56:10;;;;;;;;;;;3.90;99.90;;;;;;4939861;29;20364;-68
2021/03/03 03:58:36;;;;;;;;;;;3.90;99.90;;;;;;4937292;29;19918;-68
2021/03/03 04:01:02;;;;;;;;;;;3.90;99.90;;;;;;4938853;29;19953;-68
2021/03/03 04:03:27;;;;;;;;;;;3.90;99.90;;;;;;4935382;29;19925;-68
2021/03/03 04:05:53;;;;;;;;;;;3.90;99.90;;;;;;4937452;29;20493;-68
2021/03/03 04:08:18;;;;;;;;;;;3.80;99.90;;;;;;4938172;29;19914;-68
2021/03/03 04:10:44;;;;;;;;;;;3.80;99.90;;;;;;4939878;29;19918;-68
2021/03/03 04:13:09;;;;;;;;;;;3.80;99.90;;;;;;4939036;29;19918;-68
2021/03/03 04:15:35;;;;;;;;;;;3.80;99.90;;;;;;4956906;28;19914;-68
2021/03/03 04:18:00;;;;;;;;;;;3.80;99.90;;;;;;4951380;28;19920;-69
2021/03/03 04:20:26;;;;;;;;;;;3.80;99.90;;;;;;4943712;29;20021;-68
2021/03/03 04:22:54;;;;;;;;;;;3.70;99.90;;;;;;4935410;28;19918;-68
2021/03/03 04:25:24;;;;;;;;;;;3.70;99.90;;;;;;4939399;29;19996;-68
2021/03/03 04:27:50;;;;;;;;;;;3.70;99.90;;;;;;4935372;29;20344;-68
2021/03/03 04:30:16;;;;;;;;;;;3.70;99.90;;;;;;4936961;29;19926;-68
2021/03/03 04:32:42;;;;;;;;;;;3.70;99.90;;;;;;4938542;29;20009;-68
2021/03/03 04:35:07;;;;;;;;;;;3.70;99.90;;;;;;4937535;29;19914;-68
2021/03/03 04:37:33;;;;;;;;;;;3.70;99.90;;;;;;4938783;29;20009;-68
2021/03/03 04:39:59;;;;;;;;;;;3.70;99.90;;;;;;4933816;29;20001;-68
2021/03/03 04:42:24;;;;;;;;;;;3.70;99.90;;;;;;4940064;29;19918;-68
2021/03/03 04:44:50;;;;;;;;;;;3.60;99.90;;;;;;4945394;28;19910;-68
2021/03/03 04:47:15;;;;;;;;;;;3.60;99.90;;;;;;4950998;29;19918;-68
2021/03/03 04:49:41;;;;;;;;;;;3.60;99.90;;;;;;4950567;29;19914;-69
2021/03/03 04:52:09;;;;;;;;;;;3.60;99.90;;;;;;4951511;28;19914;-68
2021/03/03 04:54:37;;;;;;;;;;;3.60;99.90;;;;;;4950953;29;19929;-68
2021/03/03 04:57:03;;;;;;;;;;;3.60;99.90;;;;;;4961325;28;20382;-68
2021/03/03 04:59:28;;;;;;;;;;;3.60;99.90;;;;;;4949625;29;20295;-68
2021/03/03 05:01:54;;;;;;;;;;;3.60;99.90;;;;;;4943854;29;19914;-69
2021/03/03 05:04:20;;;;;;;;;;;3.50;99.90;;;;;;4939538;29;19918;-69
2021/03/03 05:06:45;;;;;;;;;;;3.60;99.90;;;;;;4938505;28;19918;-69
2021/03/03 05:09:13;;;;;;;;;;;3.50;99.90;;;;;;4948963;29;20343;-69
2021/03/03 05:11:38;;;;;;;;;;;3.50;99.90;;;;;;4951620;29;19921;-68
2021/03/03 05:14:04;;;;;;;;;;;3.50;99.90;;;;;;4951780;28;20032;-69
2021/03/03 05:16:29;;;;;;;;;;;3.50;99.90;;;;;;4944718;29;19965;-68
2021/03/03 05:18:55;;;;;;;;;;;3.50;99.90;;;;;;4939359;29;19922;-68
2021/03/03 05:21:20;;;;;;;;;;;3.50;99.90;;;;;;4939951;29;19925;-68
2021/03/03 05:23:46;;;;;;;;;;;3.50;99.90;;;;;;4938529;29;19918;-68
2021/03/03 05:26:14;;;;;;;;;;;3.50;99.90;;;;;;4937742;29;20345;-68
2021/03/03 05:28:45;;;;;;;;;;;3.40;99.90;;;;;;4943973;29;19921;-68
2021/03/03 05:31:14;;;;;;;;;;;3.40;99.90;;;;;;4950343;28;19922;-68
2021/03/03 05:33:40;;;;;;;;;;;3.40;99.90;;;;;;4939530;29;20016;-69
2021/03/03 05:36:06;;;;;;;;;;;3.40;99.90;;;;;;4940376;29;19918;-68
2021/03/03 05:38:34;;;;;;;;;;;3.40;99.90;;;;;;4938061;29;20521;-68
2021/03/03 05:41:00;;;;;;;;;;;3.40;99.90;;;;;;4938382;29;19997;-68
2021/03/03 05:43:25;;;;;;;;;;;3.40;99.90;;;;;;4937356;29;20411;-68
2021/03/03 05:45:51;;;;;;;;;;;3.40;99.90;;;;;;4922070;29;19918;-69
2021/03/03 05:48:22;;;;;;;;;;;3.40;99.90;;;;;;4938746;29;19937;-68
2021/03/03 05:51:14;;;;;;;;;;;3.40;99.90;;;;;;4933752;29;20017;-69
2021/03/03 05:53:40;;;;;;;;;;;3.40;99.90;;;;;;4949476;29;19918;-68
2021/03/03 05:56:06;;;;;;;;;;;3.40;99.90;;;;;;4941383;28;19918;-68
2021/03/03 05:58:32;;;;;;;;;;;3.40;99.90;;;;;;4956469;28;20436;-68
2021/03/03 06:00:58;;;;;;;;;;;3.40;99.90;;;;;;4937251;29;19997;-68
2021/03/03 06:03:24;;;;;;;;;;;3.40;99.90;;;;;;4944679;29;20353;-68
2021/03/03 06:05:50;;;;;;;;;;;3.40;99.90;;;;;;4954686;29;19922;-68
2021/03/03 06:08:17;;;;;;;;;;;3.40;99.90;;;;;;4949359;29;20300;-69
2021/03/03 06:10:48;;;;;;;;;;;3.40;99.90;;;;;;4941098;29;20340;-68
2021/03/03 06:13:13;;;;;;;;;;;3.30;99.90;;;;;;4941416;28;19918;-68
2021/03/03 06:15:39;;;;;;;;;;;3.30;99.90;;;;;;4942014;29;19914;-68
2021/03/03 06:18:06;;;;;;;;;;;3.30;99.90;;;;;;4940641;29;19925;-68
2021/03/03 06:20:37;;;;;;;;;;;3.30;99.90;;;;;;4938082;29;19918;-68
2021/03/03 06:23:21;;;;;;;;;;;3.30;99.90;;;;;;4942216;29;19918;-69
2021/03/03 06:25:48;;;;;;;;;;;3.30;99.90;;;;;;4941899;29;20542;-68
2021/03/03 06:28:30;;;;;;;;;;;3.30;99.90;;;;;;4942867;28;20352;-68
2021/03/03 06:30:56;;;;;;;;;;;3.30;99.90;;;;;;4943128;29;19922;-69
2021/03/03 06:33:25;;;;;;;;;;;3.30;99.90;;;;;;4952466;29;20260;-68
2021/03/03 06:35:51;;;;;;;;;;;3.30;99.90;;;;;;4953319;29;20016;-68
2021/03/03 06:38:16;;;;;;;;;;;3.30;99.90;;;;;;4943132;29;19937;-68
2021/03/03 06:40:55;;;;;;;;;;;3.30;99.90;;;;;;4943291;29;20005;-69
2021/03/03 06:43:27;;;;;;;;;;;3.30;99.90;;;;;;4952490;29;19918;-68
2021/03/03 06:45:55;;;;;;;;;;;3.30;99.90;;;;;;4947747;29;19997;-69
2021/03/03 06:48:35;;;;;;;;;;;3.30;99.90;;;;;;4941152;29;19929;-68
2021/03/03 06:51:03;;;;;;;;;;;3.40;99.90;;;;;;4939695;29;20304;-68
2021/03/03 06:53:32;;;;;;;;;;;3.40;99.90;;;;;;4937492;29;19914;-68
2021/03/03 06:55:57;;;;;;;;;;;3.40;99.90;;;;;;4937244;29;19974;-68
2021/03/03 06:58:26;;;;;;;;;;;3.40;99.90;;;;;;4952751;29;20012;-69
2021/03/03 07:00:51;;;;;;;;;;;3.40;99.90;;;;;;4947698;29;19925;-69
2021/03/03 07:03:35;;;;;;;;;;;3.50;99.90;;;;;;4945662;29;19918;-69
2021/03/03 07:06:02;;;;;;;;;;;3.50;99.90;;;;;;4962970;28;19918;-70
2021/03/03 07:08:28;;;;;;;;;;;3.60;99.90;;;;;;4949577;28;20388;-70
2021/03/03 07:10:53;;;;;;;;;;;3.60;99.90;;;;;;4932975;29;19995;-69
2021/03/03 07:13:34;;;;;;;;;;;3.60;99.90;;;;;;4951565;29;20350;-69
2021/03/03 07:16:04;;;;;;;;;;;3.60;99.90;;;;;;4951272;29;19911;-68
2021/03/03 07:18:33;;;;;;;;;;;3.70;99.90;;;;;;4949953;29;19910;-69
2021/03/03 07:21:01;;;;;;;;;;;3.70;99.90;;;;;;4952038;29;19992;-69
2021/03/03 07:23:42;;;;;;;;;;;3.70;99.90;;;;;;4950809;29;19911;-68
2021/03/03 07:26:08;;;;;;;;;;;3.80;99.90;;;;;;4949556;29;20348;-69
2021/03/03 07:28:34;;;;;;;;;;;3.90;99.90;;;;;;4951489;28;19914;-70
2021/03/03 07:30:59;;;;;;;;;;;3.90;99.90;;;;;;4950354;29;19976;-70
2021/03/03 07:33:25;;;;;;;;;;;3.90;99.90;;;;;;4935434;29;20000;-70
2021/03/03 07:35:51;;;;;;;;;;;4.00;99.90;;;;;;4950609;29;19910;-69
2021/03/03 07:38:16;;;;;;;;;;;4.00;99.90;;;;;;4933085;29;19918;-69
2021/03/03 07:40:42;;;;;;;;;;;4.10;99.90;;;;;;4946986;28;20526;-68
2021/03/03 07:43:08;;;;;;;;;;;4.10;99.90;;;;;;4949631;28;19914;-68
2021/03/03 07:45:34;;;;;;;;;;;4.20;99.90;;;;;;4946985;29;19917;-68
2021/03/03 07:48:00;;;;;;;;;;;4.30;99.90;;;;;;4950778;29;19914;-69
2021/03/03 07:50:25;;;;;;;;;;;4.30;99.90;;;;;;4949703;28;19933;-68
2021/03/03 07:52:54;;;;;;;;;;;4.40;99.90;;;;;;4951233;29;19925;-68
2021/03/03 07:55:20;;;;;;;;;;;4.50;99.90;;;;;;4950578;29;20021;-69
2021/03/03 07:57:49;;;;;;;;;;;4.50;99.90;;;;;;4951000;29;20012;-69
2021/03/03 08:00:19;;;;;;;;;;;4.60;99.90;;;;;;4949897;29;19911;-69
2021/03/03 08:02:45;;;;;;;;;;;4.70;99.90;;;;;;4950339;29;19918;-69
2021/03/03 08:05:14;;;;;;;;;;;4.80;99.90;;;;;;4951074;29;20037;-68
2021/03/03 08:07:42;;;;;;;;;;;4.90;99.90;;;;;;4948737;29;19962;-69
2021/03/03 08:10:13;;;;;;;;;;;4.90;99.90;;;;;;4949664;29;19922;-69
2021/03/03 08:12:58;;;;;;;;;;;5.00;99.90;;;;;;4952045;29;19914;-69
2021/03/03 08:15:35;;;;;;;;;;;5.20;99.90;;;;;;4947376;29;19918;-69
2021/03/03 08:18:13;;;;;;;;;;;5.30;99.90;;;;;;4950406;29;19926;-69
2021/03/03 08:20:39;;;;;;;;;;;5.40;99.90;;;;;;4949852;28;19918;-69
2021/03/03 08:23:06;;;;;;;;;;;5.50;99.90;;;;;;4949912;29;19941;-69
2021/03/03 08:25:48;;;;;;;;;;;5.60;99.90;;;;;;4932273;29;19930;-69
2021/03/03 08:28:26;;;;;;;;;;;5.70;99.90;;;;;;4950264;29;20517;-69
2021/03/03 08:31:07;;;;;;;;;;;5.80;99.90;;;;;;4944721;29;19918;-69
2021/03/03 08:33:36;;;;;;;;;;;6.00;99.90;;;;;;4950701;28;19910;-69
2021/03/03 08:36:02;;;;;;;;;;;6.10;99.90;;;;;;4949238;28;19997;-69
2021/03/03 08:38:28;;;;;;;;;;;6.20;99.90;;;;;;4949631;29;20022;-70
2021/03/03 08:41:05;;;;;;;;;;;6.30;99.90;;;;;;4950874;28;19924;-69
2021/03/03 08:43:39;;;;;;;;;;;6.40;99.90;;;;;;4947757;29;19910;-69
2021/03/03 08:46:23;;;;;;;;;;;6.50;99.90;;;;;;4950373;29;20119;-69
2021/03/03 08:48:57;;;;;;;;;;;6.50;99.90;;;;;;4950306;29;20362;-69
2021/03/03 08:51:23;;;;;;;;;;;6.60;99.90;;;;;;4950244;29;19910;-69
2021/03/03 08:53:54;;;;;;;;;;;6.70;99.90;;;;;;4949821;29;19929;-69
2021/03/03 08:56:32;;;;;;;;;;;6.70;99.90;;;;;;4948968;29;19961;-69
2021/03/03 08:59:01;;;;;;;;;;;6.70;99.90;;;;;;4949674;29;19921;-69
2021/03/03 09:01:49;;;;;;;;;;;6.80;99.90;;;;;;4949472;29;19918;-69
2021/03/03 09:04:15;;;;;;;;;;;6.90;99.90;;;;;;4948419;29;19998;-69
2021/03/03 09:06:44;;;;;;;;;;;7.00;99.90;;;;;;4950351;29;19993;-69
2021/03/03 09:09:09;;;;;;;;;;;7.10;99.90;;;;;;4948840;29;20288;-69
2021/03/03 09:11:35;;;;;;;;;;;7.20;99.90;;;;;;4949220;28;19965;-69
2021/03/03 09:14:01;;;;;;;;;;;7.30;99.90;;;;;;4949072;29;19922;-69
2021/03/03 09:16:26;;;;;;;;;;;7.40;99.90;;;;;;4930983;29;19918;-69
2021/03/03 09:19:05;;;;;;;;;;;7.40;99.90;;;;;;4949322;29;19911;-69
2021/03/03 09:21:30;;;;;;;;;;;7.50;99.90;;;;;;4948885;28;19926;-69
2021/03/03 09:24:16;;;;;;;;;;;7.50;99.90;;;;;;4949472;29;19910;-69
2021/03/03 09:26:43;;;;;;;;;;;7.60;99.90;;;;;;4950131;29;19926;-70
2021/03/03 09:29:28;;;;;;;;;;;7.70;99.90;;;;;;4949864;29;19957;-69
2021/03/03 09:31:56;;;;;;;;;;;7.80;99.90;;;;;;4952056;28;20005;-69
2021/03/03 09:34:22;;;;;;;;;;;7.90;99.90;;;;;;4953983;29;20026;-69
2021/03/03 09:36:56;;;;;;;;;;;8.00;99.90;;;;;;4953083;29;20368;-69
2021/03/03 09:39:24;;;;;;;;;;;8.10;99.90;;;;;;4953541;29;20435;-69
2021/03/03 09:41:53;;;;;;;;;;;8.20;99.90;;;;;;4952870;29;19914;-69
2021/03/03 09:44:18;;;;;;;;;;;8.30;99.90;;;;;;4952243;29;20022;-69
2021/03/03 09:46:59;;;;;;;;;;;8.40;99.90;;;;;;4954587;28;20005;-69
2021/03/03 09:49:26;;;;;;;;;;;8.40;99.90;;;;;;4953826;29;19998;-69
2021/03/03 09:51:51;;;;;;;;;;;8.60;99.90;;;;;;4952306;29;19919;-69
2021/03/03 09:54:30;;;;;;;;;;;8.70;99.90;;;;;;4953649;29;20251;-69
2021/03/03 09:57:07;;;;;;;;;;;8.70;99.90;;;;;;4954291;29;20356;-67
2021/03/03 09:59:33;;;;;;;;;;;8.70;99.90;;;;;;4953589;29;19921;-68
2021/03/03 10:02:01;;;;;;;;;;;8.80;99.90;;;;;;4952637;29;19914;-70
2021/03/03 10:04:26;;;;;;;;;;;8.90;99.90;;;;;;4952736;29;19910;-69
2021/03/03 10:06:52;;;;;;;;;;;9.00;99.90;;;;;;4949148;29;19929;-67
2021/03/03 10:09:18;;;;;;;;;;;9.00;99.90;;;;;;4950783;29;19919;-67
2021/03/03 10:11:43;;;;;;;;;;;9.00;99.90;;;;;;4953470;28;19962;-67
2021/03/03 10:14:09;;;;;;;;;;;9.00;99.90;;;;;;4952855;28;20373;-68
2021/03/03 10:16:34;;;;;;;;;;;9.00;99.90;;;;;;4952598;29;20312;-67
2021/03/03 10:19:03;;;;;;;;;;;9.10;99.90;;;;;;4949622;28;19910;-67
2021/03/03 10:21:29;;;;;;;;;;;9.10;99.90;;;;;;4951454;29;19925;-68
2021/03/03 10:23:54;;;;;;;;;;;9.10;99.90;;;;;;4946205;29;19914;-68
2021/03/03 10:26:43;;;;;;;;;;;9.20;99.90;;;;;;4950800;29;19965;-67
2021/03/03 10:29:08;;;;;;;;;;;9.30;99.90;;;;;;4949925;29;19923;-67
2021/03/03 10:31:36;;;;;;;;;;;9.40;99.90;;;;;;4951475;28;19919;-67
2021/03/03 10:34:09;;;;;;;;;;;9.40;99.90;;;;;;4950607;28;19987;-67
2021/03/03 10:36:40;;;;;;;;;;;9.50;99.90;;;;;;4951227;29;20067;-68
2021/03/03 10:39:06;;;;;;;;;;;9.60;99.90;;;;;;4951494;29;19918;-67
2021/03/03 10:41:33;;;;;;;;;;;9.70;99.90;;;;;;4952753;29;20401;-67
2021/03/03 10:43:59;;;;;;;;;;;9.80;99.90;;;;;;4951194;28;19961;-67
2021/03/03 10:46:26;;;;;;;;;;;9.90;99.90;;;;;;4963658;28;19915;-67
2021/03/03 10:48:52;;;;;;;;;;;10.10;99.90;;;;;;4951792;29;19956;-67
2021/03/03 10:51:20;;;;;;;;;;;10.20;99.90;;;;;;4952805;28;19946;-68
2021/03/03 10:53:58;;;;;;;;;;;10.40;99.90;;;;;;4952142;29;19993;-67
2021/03/03 10:56:29;;;;;;;;;;;10.60;99.90;;;;;;4952198;29;19921;-67
2021/03/03 10:58:58;;;;;;;;;;;10.80;99.90;;;;;;4951867;29;19925;-67
2021/03/03 11:01:39;;;;;;;;;;;10.90;96.00;;;;;;4949380;29;19928;-67
2021/03/03 11:04:07;;;;;;;;;;;10.90;96.70;;;;;;4934426;29;19936;-69
2021/03/03 11:06:33;;;;;;;;;;;11.00;96.00;;;;;;4950998;29;19925;-69
2021/03/03 11:08:58;;;;;;;;;;;11.10;95.50;;;;;;4951227;29;20048;-69
2021/03/03 11:11:24;;;;;;;;;;;11.20;99.90;;;;;;4951629;29;19989;-67
2021/03/03 11:13:50;;;;;;;;;;;11.20;99.50;;;;;;4950912;29;19945;-68
2021/03/03 11:16:15;;;;;;;;;;;11.40;99.00;;;;;;4952381;28;20441;-68
2021/03/03 11:18:41;;;;;;;;;;;11.60;94.00;;;;;;4952359;28;20467;-68
2021/03/03 11:21:09;;;;;;;;;;;11.60;91.70;;;;;;4950466;29;20169;-68
2021/03/03 11:23:34;;;;;;;;;;;11.70;96.60;;;;;;4951781;29;19938;-68
2021/03/03 11:26:00;;;;;;;;;;;11.90;94.00;;;;;;4949817;29;19911;-65
2021/03/03 11:28:26;;;;;;;;;;;12.10;91.30;;;;;;4951480;29;19914;-68
2021/03/03 11:30:51;;;;;;;;;;;12.30;95.50;;;;;;4951127;29;20379;-68
2021/03/03 11:33:19;;;;;;;;;;;12.30;90.20;;;;;;4952075;29;19925;-68
2021/03/03 11:35:45;;;;;;;;;;;12.50;88.00;;;;;;4952492;29;19929;-68
2021/03/03 11:38:10;;;;;;;;;;;12.70;90.10;;;;;;4951195;29;19929;-68
2021/03/03 11:40:36;;;;;;;;;;;12.90;91.40;;;;;;4950955;29;19910;-68
2021/03/03 11:43:04;;;;;;;;;;;13.00;89.40;;;;;;4951570;29;19914;-68
2021/03/03 11:45:29;;;;;;;;;;;13.10;88.00;;;;;;4950268;28;19938;-67
2021/03/03 11:47:57;;;;;;;;;;;13.20;87.00;;;;;;4952419;29;20332;-68
2021/03/03 11:50:23;;;;;;;;;;;13.30;91.30;;;;;;4951418;29;19989;-68
2021/03/03 11:52:51;;;;;;;;;;;13.40;92.40;;;;;;4932163;29;19918;-68
2021/03/03 11:55:17;;;;;;;;;;;13.60;82.30;;;;;;4951135;28;19925;-68
2021/03/03 11:57:42;;;;;;;;;;;13.60;86.50;;;;;;4950790;28;19997;-68
2021/03/03 12:00:09;;;;;;;;;;;13.80;85.60;;;;;;4952278;29;19951;-68
2021/03/03 12:02:34;;;;;;;;;;;13.80;86.20;;;;;;4951059;29;19973;-68
2021/03/03 12:05:02;;;;;;;;;;;13.90;84.60;;;;;;4951308;29;19911;-68
2021/03/03 12:07:28;;;;;;;;;;;14.00;85.90;;;;;;4950767;29;20004;-68
2021/03/03 12:09:53;;;;;;;;;;;14.00;82.50;;;;;;4950496;29;19974;-69
2021/03/03 12:12:21;;;;;;;;;;;14.00;81.50;;;;;;4950551;28;19914;-68
2021/03/03 12:14:47;;;;;;;;;;;14.00;78.20;;;;;;4951503;29;19950;-68
2021/03/03 12:17:12;;;;;;;;;;;14.00;84.20;;;;;;4950695;29;20000;-68
2021/03/03 12:19:38;;;;;;;;;;;13.90;81.60;;;;;;4948215;29;20474;-68
2021/03/03 12:22:04;;;;;;;;;;;13.90;79.60;;;;;;4950114;29;20363;-68
2021/03/03 12:24:29;;;;;;;;;;;13.90;80.40;;;;;;4947319;29;19910;-68
2021/03/03 12:26:55;;;;;;;;;;;13.80;82.90;;;;;;4949367;29;19950;-68
2021/03/03 12:29:20;;;;;;;;;;;13.80;80.00;;;;;;4949702;29;19922;-68
2021/03/03 12:31:48;;;;;;;;;;;13.70;81.60;;;;;;4950884;28;19925;-68
2021/03/03 12:34:14;;;;;;;;;;;13.60;77.90;;;;;;4948981;28;20005;-68
2021/03/03 12:36:39;;;;;;;;;;;13.50;82.80;;;;;;4951087;29;19974;-68
2021/03/03 12:39:05;;;;;;;;;;;13.40;83.20;;;;;;4950309;28;19938;-72
2021/03/03 12:41:35;;;;;;;;;;;13.40;82.10;;;;;;4949767;29;19944;-68
2021/03/03 12:44:05;;;;;;;;;;;13.40;78.70;;;;;;4965388;28;19914;-69
2021/03/03 12:46:33;;;;;;;;;;;13.40;82.00;;;;;;4951645;29;20408;-68
2021/03/03 12:48:59;;;;;;;;;;;13.40;78.90;;;;;;4949498;29;20325;-69
2021/03/03 12:51:24;;;;;;;;;;;13.50;82.30;;;;;;4951003;29;19982;-69
2021/03/03 12:53:50;;;;;;;;;;;13.60;84.40;;;;;;4951825;28;19972;-69
2021/03/03 12:56:15;;;;;;;;;;;13.60;81.00;;;;;;4949022;29;19954;-70
2021/03/03 12:58:41;;;;;;;;;;;13.60;81.90;;;;;;4949930;29;19987;-69
2021/03/03 13:01:07;;;;;;;;;;;13.70;83.60;;;;;;4950165;29;19918;-69
2021/03/03 13:03:34;;;;;;;;;;;13.60;77.00;;;;;;4951303;28;19921;-69
2021/03/03 13:06:00;;;;;;;;;;;13.60;79.20;;;;;;4949977;28;19964;-68
2021/03/03 13:08:27;;;;;;;;;;;13.50;79.20;;;;;;4951115;28;20268;-68
2021/03/03 13:10:55;;;;;;;;;;;13.40;78.00;;;;;;4950412;29;19919;-68
2021/03/03 13:13:20;;;;;;;;;;;13.30;78.60;;;;;;4948426;28;20001;-68
2021/03/03 13:15:46;;;;;;;;;;;13.40;79.50;;;;;;4950296;29;21683;-68
2021/03/03 13:18:14;;;;;;;;;;;13.40;82.70;;;;;;4949992;29;19911;-68
2021/03/03 13:20:42;;;;;;;;;;;13.50;77.00;;;;;;4949871;29;19920;-68
2021/03/03 13:23:07;;;;;;;;;;;13.50;79.50;;;;;;4949367;29;19953;-68
2021/03/03 13:25:33;;;;;;;;;;;13.40;78.80;;;;;;4949463;29;20013;-69
2021/03/03 13:27:58;;;;;;;;;;;13.50;84.40;;;;;;4948442;28;20032;-68
2021/03/03 13:30:26;;;;;;;;;;;13.50;79.60;;;;;;4946894;29;19941;-68
2021/03/03 13:32:54;;;;;;;;;;;13.50;74.10;;;;;;4950650;29;19997;-68
2021/03/03 13:35:20;;;;;;;;;;;13.40;79.50;;;;;;4950148;29;20013;-68
2021/03/03 13:37:48;;;;;;;;;;;13.50;77.80;;;;;;4949477;28;20018;-68
2021/03/03 13:40:13;;;;;;;;;;;13.50;83.70;;;;;;4951216;29;20344;-68
2021/03/03 13:42:41;;;;;;;;;;;13.50;84.10;;;;;;4949770;29;20020;-68
2021/03/03 13:45:11;;;;;;;;;;;13.50;84.80;;;;;;4949779;29;19911;-68
2021/03/03 13:47:37;;;;;;;;;;;13.60;84.50;;;;;;4945201;29;20363;-68
2021/03/03 13:50:03;;;;;;;;;;;13.50;76.70;;;;;;4949338;29;19922;-68
2021/03/03 13:52:29;;;;;;;;;;;13.50;80.00;;;;;;4948728;29;19910;-68
2021/03/03 13:54:54;;;;;;;;;;;13.50;74.80;;;;;;4950923;28;19911;-68
2021/03/03 13:57:20;;;;;;;;;;;13.50;80.90;;;;;;4948102;29;21794;-68
2021/03/03 13:59:45;;;;;;;;;;;13.50;79.70;;;;;;4948469;29;19910;-68
2021/03/03 14:02:11;;;;;;;;;;;13.50;80.90;;;;;;4949377;29;19915;-69
2021/03/03 14:04:36;;;;;;;;;;;13.50;79.40;;;;;;4950387;29;19911;-68
2021/03/03 14:07:02;;;;;;;;;;;13.50;79.90;;;;;;4950600;29;19969;-68
2021/03/03 14:09:28;;;;;;;;;;;13.50;81.10;;;;;;4950617;29;19918;-68
2021/03/03 14:11:55;;;;;;;;;;;13.50;80.30;;;;;;4949850;29;19914;-69
2021/03/03 14:14:21;;;;;;;;;;;13.50;82.70;;;;;;4946903;29;20009;-68
2021/03/03 14:16:47;;;;;;;;;;;13.50;83.80;;;;;;4950271;29;19922;-68
2021/03/03 14:19:15;;;;;;;;;;;13.50;80.10;;;;;;4950502;28;19922;-68
2021/03/03 14:21:42;;;;;;;;;;;13.50;79.10;;;;;;4951742;29;19914;-69
2021/03/03 14:24:10;;;;;;;;;;;13.50;82.00;;;;;;4948400;29;20361;-68
2021/03/03 14:26:36;;;;;;;;;;;13.50;80.70;;;;;;4952041;29;19915;-69
2021/03/03 14:29:04;;;;;;;;;;;13.40;78.60;;;;;;4953016;28;19910;-68